Time;durP1;ratioP1;P1;durP2;ratioP2;P2;SDS_P1;SDS_P2;PMS_P1;PMS_P2;Temp;Humidity;BMP_temperature;BMP_pressure;BME280_temperature;BME280_humidity;BME280_pressure;Samples;Min_cycle;Max_cycle;Signal;HPM_P1;HPM_P2
2023/04/28 00:01:59;;;;;;;4.82;4.35;;;11.80;99.90;;;;;;5094151;28;20418;-62
2023/04/28 00:04:25;;;;;;;4.15;3.75;;;11.80;99.90;;;;;;5095555;28;20040;-62
2023/04/28 00:06:53;;;;;;;5.85;3.70;;;11.80;99.90;;;;;;5094331;28;20115;-62
2023/04/28 00:09:19;;;;;;;5.53;3.63;;;11.80;99.90;;;;;;5100953;28;20044;-62
2023/04/28 00:11:46;;;;;;;3.25;2.80;;;11.90;99.90;;;;;;5098663;28;20039;-61
2023/04/28 00:14:13;;;;;;;4.07;2.63;;;11.90;99.90;;;;;;5115047;28;20445;-62
2023/04/28 00:16:40;;;;;;;3.40;2.78;;;11.90;99.90;;;;;;5114939;28;20500;-61
2023/04/28 00:19:07;;;;;;;3.05;2.70;;;11.90;99.90;;;;;;5114794;28;20116;-62
2023/04/28 00:21:34;;;;;;;3.20;2.60;;;12.00;99.90;;;;;;5113499;28;20051;-62
2023/04/28 00:24:01;;;;;;;2.83;2.15;;;12.00;99.90;;;;;;5104438;28;20076;-61
2023/04/28 00:26:27;;;;;;;2.38;2.17;;;12.00;99.90;;;;;;5095248;28;20036;-62
2023/04/28 00:28:54;;;;;;;2.15;1.95;;;12.00;99.90;;;;;;5095069;28;20051;-61
2023/04/28 00:31:21;;;;;;;3.15;2.45;;;12.00;99.90;;;;;;5093734;28;20058;-63
2023/04/28 00:33:48;;;;;;;3.88;2.10;;;12.10;99.90;;;;;;5095014;28;20491;-62
2023/04/28 00:36:15;;;;;;;3.50;1.83;;;12.10;99.90;;;;;;5094986;28;20052;-62
2023/04/28 00:38:41;;;;;;;2.75;2.15;;;12.10;99.90;;;;;;5095012;28;20425;-62
2023/04/28 00:41:08;;;;;;;3.53;2.20;;;12.10;99.90;;;;;;5093394;28;20059;-61
2023/04/28 00:43:35;;;;;;;3.65;2.00;;;12.10;99.90;;;;;;5112581;28;20490;-61
2023/04/28 00:46:02;;;;;;;2.22;1.80;;;12.10;99.90;;;;;;5113076;28;20470;-62
2023/04/28 00:48:28;;;;;;;2.42;1.40;;;12.10;99.90;;;;;;5114100;28;20406;-61
2023/04/28 00:50:55;;;;;;;1.90;1.42;;;12.10;99.90;;;;;;5113063;28;20105;-61
2023/04/28 00:53:22;;;;;;;4.47;1.75;;;12.10;99.90;;;;;;5112788;28;20088;-61
2023/04/28 00:55:49;;;;;;;2.20;1.45;;;12.10;99.90;;;;;;5096042;28;20048;-63
2023/04/28 00:58:16;;;;;;;2.55;1.42;;;12.10;99.90;;;;;;5112753;28;20068;-62
2023/04/28 01:00:42;;;;;;;1.90;1.60;;;12.10;99.90;;;;;;5113748;28;20052;-61
2023/04/28 01:03:09;;;;;;;2.83;1.90;;;12.10;99.90;;;;;;5114227;28;20046;-62
2023/04/28 01:05:36;;;;;;;2.13;1.67;;;12.10;99.90;;;;;;5113998;28;20055;-62
2023/04/28 01:08:03;;;;;;;3.10;1.67;;;12.10;99.90;;;;;;5113770;28;20050;-62
2023/04/28 01:10:30;;;;;;;2.33;2.03;;;12.10;99.90;;;;;;5111383;28;20077;-61
2023/04/28 01:13:04;;;;;;;2.85;2.03;;;12.10;99.90;;;;;;5112713;28;20067;-62
2023/04/28 01:15:32;;;;;;;2.58;1.70;;;12.20;99.90;;;;;;5112229;28;20050;-63
2023/04/28 01:17:58;;;;;;;2.60;2.17;;;12.20;99.90;;;;;;5112136;28;20371;-63
2023/04/28 01:20:26;;;;;;;2.25;2.05;;;12.20;99.90;;;;;;5112252;28;20476;-62
2023/04/28 01:22:53;;;;;;;2.55;2.33;;;12.20;99.90;;;;;;5102384;28;20059;-62
2023/04/28 01:25:20;;;;;;;2.38;2.10;;;12.20;99.90;;;;;;5092660;28;20101;-63
2023/04/28 01:27:47;;;;;;;2.53;1.92;;;12.30;99.90;;;;;;5092986;28;20043;-63
2023/04/28 01:30:13;;;;;;;2.47;2.28;;;12.30;99.90;;;;;;5092400;28;20048;-62
2023/04/28 01:32:40;;;;;;;2.10;1.90;;;12.30;99.90;;;;;;5093712;28;20491;-62
2023/04/28 01:35:07;;;;;;;2.40;2.20;;;12.30;99.90;;;;;;5092353;28;20127;-62
2023/04/28 01:37:34;;;;;;;2.22;1.90;;;12.30;99.90;;;;;;5092597;28;20372;-62
2023/04/28 01:40:01;;;;;;;2.88;2.58;;;12.30;99.90;;;;;;5093872;28;20387;-61
2023/04/28 01:42:28;;;;;;;3.13;2.83;;;12.30;99.90;;;;;;5110595;28;20040;-62
2023/04/28 01:44:55;;;;;;;3.28;2.97;;;12.30;99.90;;;;;;5113181;28;20047;-61
2023/04/28 01:47:21;;;;;;;3.28;2.97;;;12.30;99.90;;;;;;5112222;28;20036;-63
2023/04/28 01:49:49;;;;;;;4.55;3.08;;;12.30;99.90;;;;;;5113436;28;20425;-63
2023/04/28 01:52:18;;;;;;;3.67;3.38;;;12.40;99.90;;;;;;5111958;28;20043;-62
2023/04/28 01:54:45;;;;;;;4.18;3.70;;;12.40;99.90;;;;;;5111926;28;20052;-62
2023/04/28 01:57:12;;;;;;;4.25;3.72;;;12.40;99.90;;;;;;5111644;28;20444;-62
2023/04/28 01:59:41;;;;;;;4.60;4.20;;;12.40;99.90;;;;;;5111820;28;20052;-62
2023/04/28 02:02:10;;;;;;;5.50;4.50;;;12.40;99.90;;;;;;5112027;28;20036;-61
2023/04/28 02:04:37;;;;;;;4.55;4.15;;;12.40;99.90;;;;;;5111976;28;20052;-63
2023/04/28 02:07:04;;;;;;;4.65;4.25;;;12.50;99.90;;;;;;5111889;28;20383;-62
2023/04/28 02:09:31;;;;;;;5.18;4.78;;;12.40;99.90;;;;;;5109908;28;20036;-62
2023/04/28 02:12:01;;;;;;;5.05;4.57;;;12.40;99.90;;;;;;5111547;28;20044;-62
2023/04/28 02:14:28;;;;;;;5.03;4.63;;;12.40;99.90;;;;;;5111826;28;20059;-61
2023/04/28 02:16:55;;;;;;;4.57;4.18;;;12.50;99.90;;;;;;5096398;28;20391;-61
2023/04/28 02:19:21;;;;;;;5.03;4.22;;;12.40;99.90;;;;;;5092142;28;20101;-62
2023/04/28 02:21:48;;;;;;;5.20;4.80;;;12.40;99.90;;;;;;5092101;28;20036;-63
2023/04/28 02:24:15;;;;;;;5.00;4.60;;;12.40;99.90;;;;;;5093207;28;20028;-62
2023/04/28 02:26:42;;;;;;;5.10;4.70;;;12.50;99.90;;;;;;5092189;28;20032;-63
2023/04/28 02:29:09;;;;;;;5.72;5.22;;;12.50;99.90;;;;;;5092037;28;20101;-62
2023/04/28 02:31:36;;;;;;;5.28;4.78;;;12.50;99.90;;;;;;5092019;28;20135;-62
2023/04/28 02:34:02;;;;;;;5.78;5.28;;;12.40;99.90;;;;;;5101303;28;20542;-62
2023/04/28 02:36:30;;;;;;;5.30;4.82;;;12.40;99.90;;;;;;5111513;28;20066;-60
2023/04/28 02:38:57;;;;;;;5.45;4.95;;;12.40;99.90;;;;;;5111430;28;20410;-62
2023/04/28 02:41:25;;;;;;;5.95;5.45;;;12.50;99.90;;;;;;5111265;28;20040;-62
2023/04/28 02:43:52;;;;;;;6.53;5.93;;;12.50;99.90;;;;;;5111219;28;20432;-62
2023/04/28 02:46:19;;;;;;;6.32;5.72;;;12.50;99.90;;;;;;5112800;28;20048;-61
2023/04/28 02:48:46;;;;;;;6.50;5.95;;;12.50;99.90;;;;;;5111257;28;20116;-63
2023/04/28 02:51:13;;;;;;;7.20;6.50;;;12.50;99.90;;;;;;5112525;28;20047;-63
2023/04/28 02:53:40;;;;;;;6.80;6.20;;;12.50;99.90;;;;;;5111230;28;20139;-62
2023/04/28 02:56:07;;;;;;;6.88;6.25;;;12.50;99.90;;;;;;5113888;28;20586;-61
2023/04/28 02:58:34;;;;;;;7.28;6.68;;;12.50;99.90;;;;;;5114800;28;20048;-62
2023/04/28 03:01:01;;;;;;;7.32;6.63;;;12.50;99.90;;;;;;5114738;28;20138;-62
2023/04/28 03:03:27;;;;;;;8.05;6.80;;;12.50;99.90;;;;;;5115076;28;20552;-62
2023/04/28 03:05:55;;;;;;;8.02;6.50;;;12.50;99.90;;;;;;5116289;28;20051;-61
2023/04/28 03:08:22;;;;;;;7.18;6.50;;;12.50;99.90;;;;;;5115068;28;20933;-61
2023/04/28 03:10:49;;;;;;;6.53;5.75;;;12.50;99.90;;;;;;5114543;28;20043;-62
2023/04/28 03:13:16;;;;;;;6.38;5.78;;;12.50;99.90;;;;;;5115746;28;20429;-62
2023/04/28 03:15:43;;;;;;;6.78;5.60;;;12.50;99.90;;;;;;5114649;28;20035;-62
2023/04/28 03:18:10;;;;;;;5.00;4.50;;;12.50;99.90;;;;;;5114534;28;20046;-61
2023/04/28 03:20:37;;;;;;;5.63;5.10;;;12.50;99.90;;;;;;5114189;28;20486;-61
2023/04/28 03:23:04;;;;;;;5.78;5.28;;;12.50;99.90;;;;;;5114204;28;20516;-61
2023/04/28 03:25:31;;;;;;;6.20;5.10;;;12.50;99.90;;;;;;5096908;28;20056;-62
2023/04/28 03:27:58;;;;;;;5.63;5.03;;;12.50;99.90;;;;;;5104754;28;20112;-61
2023/04/28 03:30:27;;;;;;;8.82;5.05;;;12.50;99.90;;;;;;5114396;28;20032;-61
2023/04/28 03:32:55;;;;;;;5.47;4.97;;;12.50;99.90;;;;;;5114329;28;20524;-61
2023/04/28 03:35:22;;;;;;;5.30;4.45;;;12.50;99.90;;;;;;5115537;28;20118;-61
2023/04/28 03:37:49;;;;;;;5.78;4.97;;;12.40;99.90;;;;;;5114291;28;20076;-61
2023/04/28 03:40:17;;;;;;;5.72;5.07;;;12.50;99.90;;;;;;5114162;28;20043;-61
2023/04/28 03:43:00;;;;;;;5.18;4.68;;;12.40;99.90;;;;;;5114145;28;20055;-62
2023/04/28 03:45:35;;;;;;;5.97;5.35;;;12.40;99.90;;;;;;5114090;28;20146;-61
2023/04/28 03:48:01;;;;;;;5.55;5.03;;;12.50;99.90;;;;;;5115432;28;20039;-63
2023/04/28 03:50:28;;;;;;;6.55;5.57;;;12.40;99.90;;;;;;5113743;28;20452;-62
2023/04/28 03:52:55;;;;;;;7.35;5.22;;;12.40;99.90;;;;;;5114298;28;20039;-62
2023/04/28 03:55:24;;;;;;;6.75;5.18;;;12.40;99.90;;;;;;5113904;28;20042;-62
2023/04/28 03:57:51;;;;;;;6.13;5.53;;;12.40;99.90;;;;;;5113881;28;20036;-62
2023/04/28 04:00:18;;;;;;;6.57;5.65;;;12.40;99.90;;;;;;5114990;28;20047;-61
2023/04/28 04:02:47;;;;;;;6.22;5.60;;;12.40;99.90;;;;;;5113790;28;20046;-61
2023/04/28 04:05:14;;;;;;;6.93;5.65;;;12.40;99.90;;;;;;5096656;28;20135;-61
2023/04/28 04:07:42;;;;;;;7.13;5.68;;;12.30;99.90;;;;;;5113435;28;20051;-61
2023/04/28 04:10:08;;;;;;;7.93;4.90;;;12.30;99.90;;;;;;5113563;28;20070;-61
2023/04/28 04:12:37;;;;;;;5.20;4.70;;;12.30;99.90;;;;;;5113587;28;20048;-61
2023/04/28 04:15:04;;;;;;;5.25;3.70;;;12.30;99.90;;;;;;5113330;28;20047;-62
2023/04/28 04:17:31;;;;;;;5.38;3.05;;;12.30;99.90;;;;;;5113857;28;20127;-63
2023/04/28 04:19:58;;;;;;;3.90;2.33;;;12.20;99.90;;;;;;5114722;28;20115;-62
2023/04/28 04:22:25;;;;;;;5.82;1.90;;;12.30;99.90;;;;;;5113615;28;20118;-63
2023/04/28 04:24:52;;;;;;;3.35;1.90;;;12.20;99.90;;;;;;5113370;28;20036;-61
2023/04/28 04:27:19;;;;;;;3.25;1.88;;;12.20;99.90;;;;;;5114769;28;20039;-62
2023/04/28 04:29:45;;;;;;;2.75;1.60;;;12.20;99.90;;;;;;5113312;28;20555;-61
2023/04/28 04:32:14;;;;;;;2.45;1.73;;;12.20;99.90;;;;;;5113255;28;20039;-61
2023/04/28 04:34:41;;;;;;;3.13;1.40;;;12.20;99.90;;;;;;5113450;28;20035;-60
2023/04/28 04:37:09;;;;;;;2.05;1.30;;;12.20;99.90;;;;;;5113413;28;20039;-62
2023/04/28 04:39:42;;;;;;;2.92;1.40;;;12.20;99.90;;;;;;5113364;28;20061;-61
2023/04/28 04:42:09;;;;;;;3.63;1.50;;;12.20;99.90;;;;;;5113255;28;20071;-61
2023/04/28 04:45:12;;;;;;;3.97;1.85;;;12.20;99.90;;;;;;5097350;28;20524;-60
2023/04/28 04:47:40;;;;;;;4.45;1.40;;;12.20;99.90;;;;;;5093548;28;20096;-61
2023/04/28 04:50:07;;;;;;;4.45;1.85;;;12.30;99.90;;;;;;5093223;28;20436;-62
2023/04/28 04:52:34;;;;;;;3.33;1.35;;;12.30;99.90;;;;;;5093364;28;20659;-62
2023/04/28 04:55:01;;;;;;;3.17;1.33;;;12.20;99.90;;;;;;5093524;28;20497;-62
2023/04/28 04:57:28;;;;;;;3.35;1.35;;;12.30;99.90;;;;;;5095221;28;20491;-61
2023/04/28 05:00:30;;;;;;;2.00;1.35;;;12.30;99.90;;;;;;5051499;28;20132;-62
2023/04/28 05:02:58;;;;;;;3.60;1.10;;;12.20;99.90;;;;;;5097189;28;20043;-62
2023/04/28 05:05:26;;;;;;;2.25;1.20;;;12.20;99.90;;;;;;5112749;28;20426;-62
2023/04/28 05:08:11;;;;;;;2.00;1.13;;;12.30;99.90;;;;;;5112780;28;20039;-62
2023/04/28 05:10:38;;;;;;;2.28;0.82;;;12.30;99.90;;;;;;5111283;28;20268;-62
2023/04/28 05:13:05;;;;;;;1.92;1.00;;;12.30;99.90;;;;;;5110614;28;20118;-63
2023/04/28 05:15:31;;;;;;;2.72;0.80;;;12.30;99.90;;;;;;5112601;28;20127;-62
2023/04/28 05:18:18;;;;;;;2.03;0.80;;;12.30;99.90;;;;;;5105148;28;20059;-63
2023/04/28 05:20:45;;;;;;;1.95;0.80;;;12.30;99.90;;;;;;5113933;28;20039;-62
2023/04/28 05:23:15;;;;;;;1.98;0.70;;;12.30;99.90;;;;;;5112323;28;20043;-62
2023/04/28 05:25:42;;;;;;;1.52;0.88;;;12.30;99.90;;;;;;5112623;28;20063;-63
2023/04/28 05:28:09;;;;;;;3.38;0.70;;;12.30;99.90;;;;;;5112744;28;20096;-63
2023/04/28 05:30:36;;;;;;;3.47;0.85;;;12.30;99.90;;;;;;5112143;28;20048;-62
2023/04/28 05:33:03;;;;;;;2.30;0.93;;;12.40;99.90;;;;;;5113785;28;20050;-61
2023/04/28 05:35:30;;;;;;;1.65;0.80;;;12.40;99.90;;;;;;5113607;28;20031;-62
2023/04/28 05:37:58;;;;;;;1.77;0.70;;;12.40;99.90;;;;;;5112210;28;20059;-62
2023/04/28 05:40:26;;;;;;;1.52;0.63;;;12.40;99.90;;;;;;5113447;28;20036;-61
2023/04/28 05:42:54;;;;;;;1.40;0.70;;;12.40;99.90;;;;;;5111990;28;20046;-63
2023/04/28 05:45:20;;;;;;;1.67;0.70;;;12.40;99.90;;;;;;5112099;28;20049;-63
2023/04/28 05:47:47;;;;;;;1.90;0.80;;;12.50;99.90;;;;;;5112123;28;20162;-62
2023/04/28 05:50:15;;;;;;;1.50;0.60;;;12.40;99.90;;;;;;5112048;28;20103;-63
2023/04/28 05:52:42;;;;;;;1.40;0.70;;;12.50;99.90;;;;;;5112148;28;20047;-62
2023/04/28 05:55:09;;;;;;;1.30;0.60;;;12.50;99.90;;;;;;5111837;28;20043;-62
2023/04/28 05:57:35;;;;;;;1.35;0.75;;;12.50;99.90;;;;;;5111923;28;20039;-63
2023/04/28 06:00:18;;;;;;;3.72;0.60;;;12.50;99.90;;;;;;5111558;28;20054;-61
2023/04/28 06:02:46;;;;;;;1.48;0.60;;;12.60;99.90;;;;;;5112038;28;20043;-61
2023/04/28 06:05:13;;;;;;;0.95;0.50;;;12.60;99.90;;;;;;5111990;28;20040;-63
2023/04/28 06:07:41;;;;;;;1.00;0.35;;;12.60;99.90;;;;;;5095357;28;20031;-63
2023/04/28 06:10:08;;;;;;;1.50;0.50;;;12.60;99.90;;;;;;5113467;28;20035;-63
2023/04/28 06:12:35;;;;;;;1.05;0.40;;;12.70;99.90;;;;;;5108466;28;20127;-63
2023/04/28 06:15:02;;;;;;;1.73;0.60;;;12.70;99.90;;;;;;5112303;28;20059;-63
2023/04/28 06:17:31;;;;;;;1.23;0.50;;;12.70;99.90;;;;;;5112085;28;20054;-62
2023/04/28 06:19:58;;;;;;;1.27;0.60;;;12.60;99.90;;;;;;5111917;28;20047;-59
2023/04/28 06:22:25;;;;;;;2.10;0.65;;;12.60;99.90;;;;;;5111716;28;20048;-62
2023/04/28 06:24:51;;;;;;;1.20;0.40;;;12.60;99.90;;;;;;5111443;28;20050;-61
2023/04/28 06:27:26;;;;;;;0.85;0.40;;;12.70;99.90;;;;;;5111748;28;20134;-62
2023/04/28 06:29:54;;;;;;;1.38;0.60;;;12.80;99.90;;;;;;5097216;28;20105;-60
2023/04/28 06:32:21;;;;;;;1.00;0.40;;;12.90;99.90;;;;;;5099846;28;20044;-61
2023/04/28 06:34:48;;;;;;;0.70;0.30;;;13.00;99.90;;;;;;5116504;28;20047;-60
2023/04/28 06:37:15;;;;;;;0.93;0.40;;;13.10;99.90;;;;;;5116994;28;20105;-61
2023/04/28 06:39:41;;;;;;;1.08;0.40;;;13.20;99.90;;;;;;5116877;28;20044;-60
2023/04/28 06:42:08;;;;;;;1.20;0.30;;;13.30;99.90;;;;;;5117026;28;20035;-61
2023/04/28 06:44:40;;;;;;;1.25;0.40;;;13.30;99.90;;;;;;5112732;28;20044;-60
2023/04/28 06:47:08;;;;;;;2.10;0.40;;;13.30;99.90;;;;;;5115483;28;20914;-63
2023/04/28 06:49:37;;;;;;;1.08;0.47;;;13.40;99.90;;;;;;5115500;28;20071;-62
2023/04/28 06:52:06;;;;;;;0.77;0.40;;;13.40;99.90;;;;;;5115504;28;20093;-61
2023/04/28 06:54:33;;;;;;;1.00;0.50;;;13.50;99.90;;;;;;5112058;28;20036;-62
2023/04/28 06:57:01;;;;;;;0.65;0.30;;;13.60;99.90;;;;;;5113839;28;20032;-63
2023/04/28 06:59:27;;;;;;;1.33;0.40;;;13.60;99.90;;;;;;5111825;28;20048;-61
2023/04/28 07:01:55;;;;;;;1.58;0.40;;;13.70;99.90;;;;;;5096780;28;20101;-62
2023/04/28 07:04:22;;;;;;;0.85;0.30;;;13.70;99.90;;;;;;5102530;28;20032;-62
2023/04/28 07:06:49;;;;;;;2.80;0.45;;;13.70;99.90;;;;;;5095860;28;20062;-62
2023/04/28 07:09:16;;;;;;;1.48;0.32;;;13.70;99.90;;;;;;5096809;28;20044;-62
2023/04/28 07:11:43;;;;;;;0.90;0.45;;;13.60;99.90;;;;;;5097088;28;20398;-62
2023/04/28 07:14:10;;;;;;;1.52;0.50;;;13.60;99.90;;;;;;5110362;28;20040;-62
2023/04/28 07:16:37;;;;;;;1.20;0.40;;;13.70;99.90;;;;;;5106715;28;20085;-62
2023/04/28 07:19:04;;;;;;;1.70;0.60;;;13.80;99.90;;;;;;5096470;28;20082;-62
2023/04/28 07:21:31;;;;;;;0.95;0.40;;;13.70;99.90;;;;;;5096560;28;20047;-63
2023/04/28 07:23:58;;;;;;;1.30;0.50;;;13.80;99.90;;;;;;5096632;28;20126;-61
2023/04/28 07:26:24;;;;;;;3.67;2.35;;;13.80;99.90;;;;;;5096287;28;20051;-62
2023/04/28 07:28:51;;;;;;;2.83;1.20;;;13.90;99.90;;;;;;5096117;28;20990;-62
2023/04/28 07:31:19;;;;;;;1.23;0.45;;;14.00;99.90;;;;;;5096511;28;20127;-61
2023/04/28 07:33:46;;;;;;;1.30;0.57;;;14.00;99.90;;;;;;5096502;28;20040;-62
2023/04/28 07:36:12;;;;;;;1.33;0.50;;;14.10;99.90;;;;;;5095331;28;20051;-61
2023/04/28 07:38:39;;;;;;;1.65;0.60;;;14.00;99.90;;;;;;5094987;28;20036;-62
2023/04/28 07:41:06;;;;;;;3.67;0.85;;;14.00;99.90;;;;;;5094176;28;20097;-62
2023/04/28 07:43:36;;;;;;;1.30;0.63;;;14.00;99.90;;;;;;5104710;28;20123;-63
2023/04/28 07:46:03;;;;;;;1.63;0.60;;;14.00;99.90;;;;;;5114430;28;20486;-63
2023/04/28 07:48:31;;;;;;;2.22;0.50;;;14.00;99.90;;;;;;5114240;28;20074;-61
2023/04/28 07:50:58;;;;;;;1.02;0.52;;;14.10;99.90;;;;;;5114533;28;20044;-62
2023/04/28 07:53:24;;;;;;;1.90;0.52;;;14.20;99.90;;;;;;5115537;28;20050;-62
2023/04/28 07:55:51;;;;;;;1.20;0.68;;;14.20;99.90;;;;;;5115310;28;21009;-62
2023/04/28 07:58:18;;;;;;;1.60;0.70;;;14.30;99.90;;;;;;5115485;27;20036;-63
2023/04/28 08:00:45;;;;;;;1.58;0.52;;;14.30;99.90;;;;;;5113603;28;20142;-62
2023/04/28 08:03:12;;;;;;;2.33;0.70;;;14.20;99.90;;;;;;5115425;28;20520;-62
2023/04/28 08:05:39;;;;;;;1.85;0.52;;;14.20;99.90;;;;;;5115427;28;20050;-62
2023/04/28 08:08:06;;;;;;;2.67;0.50;;;14.20;99.90;;;;;;5115139;28;20040;-61
2023/04/28 08:10:33;;;;;;;2.58;0.80;;;14.20;99.90;;;;;;5115035;28;20097;-62
2023/04/28 08:13:00;;;;;;;1.10;0.40;;;14.20;99.90;;;;;;5115140;28;20109;-62
2023/04/28 08:15:27;;;;;;;1.20;0.40;;;14.30;99.90;;;;;;5114955;28;20065;-61
2023/04/28 08:17:53;;;;;;;0.73;0.32;;;14.40;99.90;;;;;;5115214;28;20078;-63
2023/04/28 08:20:21;;;;;;;0.80;0.40;;;14.50;99.90;;;;;;5115083;28;20036;-61
2023/04/28 08:22:50;;;;;;;0.70;0.40;;;14.50;99.90;;;;;;5114936;28;20044;-62
2023/04/28 08:25:17;;;;;;;1.77;0.45;;;14.60;99.90;;;;;;5111845;28;20047;-62
2023/04/28 08:27:44;;;;;;;0.75;0.40;;;14.60;99.90;;;;;;5095201;28;20122;-62
2023/04/28 08:30:10;;;;;;;2.15;0.30;;;14.70;99.90;;;;;;5095414;28;20067;-62
2023/04/28 08:32:37;;;;;;;8.00;5.65;;;14.70;99.90;;;;;;5095116;28;20082;-63
2023/04/28 08:35:04;;;;;;;1.80;0.47;;;14.80;99.90;;;;;;5094077;28;20382;-61
2023/04/28 08:37:31;;;;;;;1.27;0.30;;;14.90;99.90;;;;;;5095205;28;20040;-62
2023/04/28 08:40:01;;;;;;;3.95;0.35;;;15.00;99.90;;;;;;5095076;28;20524;-62
2023/04/28 08:42:28;;;;;;;0.98;0.32;;;15.10;99.90;;;;;;5095129;28;20035;-61
2023/04/28 08:44:58;;;;;;;2.28;0.60;;;15.10;99.90;;;;;;5094966;28;20126;-63
2023/04/28 08:47:25;;;;;;;2.78;0.70;;;15.30;99.90;;;;;;5093626;28;20134;-63
2023/04/28 08:49:51;;;;;;;2.05;0.70;;;15.40;99.90;;;;;;5094913;28;20085;-63
2023/04/28 08:52:18;;;;;;;1.77;0.30;;;15.60;99.90;;;;;;5094948;28;20040;-62
2023/04/28 08:54:45;;;;;;;1.30;0.47;;;15.70;99.90;;;;;;5094175;28;20170;-62
2023/04/28 08:57:12;;;;;;;9.52;5.85;;;15.70;99.90;;;;;;5112223;28;20921;-62
2023/04/28 08:59:39;;;;;;;3.75;3.00;;;15.70;99.90;;;;;;5113940;28;20503;-61
2023/04/28 09:02:06;;;;;;;5.10;3.70;;;15.80;99.90;;;;;;5114211;28;20044;-62
2023/04/28 09:04:32;;;;;;;2.88;0.50;;;15.80;99.90;;;;;;5114296;28;20939;-63
2023/04/28 09:07:00;;;;;;;1.23;0.40;;;15.90;99.90;;;;;;5114088;28;20036;-62
2023/04/28 09:09:28;;;;;;;0.95;0.30;;;16.10;99.90;;;;;;5113866;28;20555;-62
2023/04/28 09:11:59;;;;;;;0.80;0.30;;;16.10;99.90;;;;;;5111739;28;20051;-63
2023/04/28 09:14:26;;;;;;;2.22;0.30;;;16.20;99.90;;;;;;5114019;28;20043;-62
2023/04/28 09:16:53;;;;;;;4.38;0.60;;;16.20;99.90;;;;;;5113893;28;20375;-62
2023/04/28 09:19:20;;;;;;;1.20;0.30;;;16.20;99.90;;;;;;5114177;28;20071;-62
2023/04/28 09:21:48;;;;;;;0.73;0.30;;;16.20;99.90;;;;;;5114060;28;20036;-63
2023/04/28 09:24:14;;;;;;;0.40;0.20;;;16.10;99.90;;;;;;5113989;28;20118;-63
2023/04/28 09:26:42;;;;;;;4.30;0.68;;;16.20;99.90;;;;;;5095174;28;20055;-63
2023/04/28 09:29:08;;;;;;;1.85;0.60;;;16.30;99.90;;;;;;5094304;28;20194;-62
2023/04/28 09:31:39;;;;;;;0.77;0.30;;;16.30;99.90;;;;;;5094315;28;20050;-62
2023/04/28 09:34:08;;;;;;;0.60;0.22;;;16.40;99.90;;;;;;5092616;28;20044;-63
2023/04/28 09:36:34;;;;;;;0.50;0.20;;;16.50;99.90;;;;;;5094225;28;20115;-62
2023/04/28 09:39:01;;;;;;;1.08;0.30;;;16.50;99.90;;;;;;5092935;28;20048;-62
2023/04/28 09:41:28;;;;;;;5.10;0.50;;;16.50;99.90;;;;;;5094046;28;20470;-62
2023/04/28 09:43:55;;;;;;;0.85;0.30;;;16.40;99.90;;;;;;5094264;28;20040;-63
2023/04/28 09:46:22;;;;;;;4.07;0.47;;;16.30;99.90;;;;;;5094029;28;20074;-63
2023/04/28 09:48:49;;;;;;;1.88;0.30;;;16.20;99.90;;;;;;5092825;28;20039;-63
2023/04/28 09:51:16;;;;;;;0.80;0.20;;;16.20;99.90;;;;;;5093794;28;20044;-63
2023/04/28 09:53:43;;;;;;;1.15;0.32;;;16.00;99.90;;;;;;5093967;28;20047;-63
2023/04/28 09:56:09;;;;;;;1.73;0.60;;;15.90;99.90;;;;;;5092520;28;20044;-61
2023/04/28 09:58:37;;;;;;;1.00;0.40;;;15.80;99.90;;;;;;5094363;28;20445;-62
2023/04/28 10:01:04;;;;;;;1.13;0.40;;;15.70;99.90;;;;;;5093736;28;20085;-61
2023/04/28 10:03:30;;;;;;;0.68;0.30;;;15.60;99.90;;;;;;5102443;28;20047;-62
2023/04/28 10:05:57;;;;;;;2.83;0.60;;;15.50;99.90;;;;;;5116343;28;20036;-63
2023/04/28 10:08:24;;;;;;;0.98;0.30;;;15.40;99.90;;;;;;5117608;28;20044;-62
2023/04/28 10:10:55;;;;;;;2.28;0.63;;;15.50;99.90;;;;;;5111010;28;20119;-63
2023/04/28 10:13:22;;;;;;;2.55;0.40;;;15.70;99.90;;;;;;5116215;28;20043;-61
2023/04/28 10:15:49;;;;;;;1.38;0.40;;;15.80;99.90;;;;;;5117315;28;20498;-62
2023/04/28 10:18:17;;;;;;;0.93;0.30;;;16.00;99.90;;;;;;5117361;28;20038;-62
2023/04/28 10:20:44;;;;;;;1.08;0.30;;;16.10;99.90;;;;;;5117219;28;20123;-62
2023/04/28 10:23:11;;;;;;;0.75;0.20;;;16.20;99.90;;;;;;5117521;28;20509;-63
2023/04/28 10:25:38;;;;;;;0.98;0.30;;;16.00;99.90;;;;;;5117038;28;20044;-61
2023/04/28 10:28:05;;;;;;;2.80;0.40;;;16.00;99.90;;;;;;5113758;28;20047;-62
2023/04/28 10:30:32;;;;;;;1.38;0.20;;;16.00;99.90;;;;;;5097346;28;20068;-61
2023/04/28 10:32:59;;;;;;;1.75;0.45;;;16.00;99.90;;;;;;5097359;28;20053;-62
2023/04/28 10:35:26;;;;;;;1.13;0.30;;;15.90;99.90;;;;;;5097352;28;20052;-63
2023/04/28 10:37:52;;;;;;;1.13;0.35;;;15.90;99.90;;;;;;5097279;28;20536;-65
2023/04/28 10:40:19;;;;;;;1.15;0.40;;;16.10;99.90;;;;;;5107647;28;20067;-61
2023/04/28 10:42:46;;;;;;;1.67;0.32;;;16.20;99.90;;;;;;5116860;28;21022;-62
2023/04/28 10:45:13;;;;;;;1.42;0.30;;;16.40;99.90;;;;;;5116982;28;20043;-63
2023/04/28 10:47:39;;;;;;;0.80;0.38;;;16.70;99.90;;;;;;5115649;28;20051;-62
2023/04/28 10:50:06;;;;;;;0.75;0.30;;;16.80;99.90;;;;;;5115240;28;20391;-62
2023/04/28 10:52:39;;;;;;;0.68;0.20;;;16.80;99.90;;;;;;5116741;28;20043;-63
2023/04/28 10:55:06;;;;;;;1.55;0.60;;;16.70;99.90;;;;;;5116800;28;20048;-62
2023/04/28 10:57:47;;;;;;;3.50;1.75;;;16.70;99.90;;;;;;5115413;28;20459;-62
2023/04/28 11:00:14;;;;;;;2.25;0.77;;;16.60;99.90;;;;;;5116308;28;20119;-62
2023/04/28 11:02:40;;;;;;;1.83;0.60;;;16.50;99.90;;;;;;5116849;28;20039;-63
2023/04/28 11:05:11;;;;;;;2.45;0.73;;;16.30;99.90;;;;;;5116463;28;20035;-62
2023/04/28 11:07:38;;;;;;;4.63;2.15;;;16.20;99.90;;;;;;5116717;28;20116;-62
2023/04/28 11:10:05;;;;;;;3.30;2.15;;;16.00;99.90;;;;;;5116466;28;20151;-61
2023/04/28 11:12:32;;;;;;;2.10;1.02;;;15.90;99.90;;;;;;5116405;28;20039;-63
2023/04/28 11:14:59;;;;;;;1.50;0.70;;;15.80;99.90;;;;;;5116852;28;20118;-62
2023/04/28 11:17:26;;;;;;;1.45;0.57;;;15.90;99.90;;;;;;5115350;28;20027;-62
2023/04/28 11:19:53;;;;;;;2.47;0.70;;;15.90;99.90;;;;;;5116455;28;20118;-63
2023/04/28 11:22:20;;;;;;;4.13;2.10;;;16.10;99.90;;;;;;5116182;27;20046;-63
2023/04/28 11:24:46;;;;;;;3.47;1.40;;;16.30;99.90;;;;;;5115972;28;20087;-63
2023/04/28 11:27:13;;;;;;;2.50;0.60;;;16.30;99.90;;;;;;5116116;27;20047;-63
2023/04/28 11:29:42;;;;;;;4.70;0.60;;;16.30;99.90;;;;;;5115962;28;20555;-62
2023/04/28 11:32:08;;;;;;;1.77;0.65;;;16.30;99.90;;;;;;5115861;28;20051;-61
2023/04/28 11:34:35;;;;;;;1.67;0.60;;;16.30;99.90;;;;;;5109219;28;20054;-62
2023/04/28 11:37:02;;;;;;;2.35;0.50;;;16.30;99.90;;;;;;5115800;28;20497;-63
2023/04/28 11:39:29;;;;;;;2.65;0.85;;;16.50;99.90;;;;;;5115348;28;20130;-65
2023/04/28 11:41:56;;;;;;;1.40;0.60;;;16.70;99.90;;;;;;5115654;28;20047;-63
2023/04/28 11:44:22;;;;;;;2.05;0.70;;;16.80;99.90;;;;;;5115581;28;20114;-61
2023/04/28 11:46:50;;;;;;;1.20;0.60;;;17.10;99.90;;;;;;5115606;28;20036;-62
2023/04/28 11:49:17;;;;;;;1.02;0.40;;;17.20;99.90;;;;;;5114341;28;20429;-62
2023/04/28 11:51:45;;;;;;;1.55;0.40;;;17.30;99.90;;;;;;5115475;28;20039;-63
2023/04/28 11:54:13;;;;;;;1.55;0.60;;;17.30;99.90;;;;;;5115642;28;20047;-63
2023/04/28 11:56:40;;;;;;;2.47;0.47;;;17.20;99.90;;;;;;5115477;28;20035;-62
2023/04/28 11:59:07;;;;;;;3.53;0.60;;;17.10;99.90;;;;;;5115196;28;20466;-62
2023/04/28 12:01:36;;;;;;;2.88;1.20;;;16.90;99.90;;;;;;5115401;28;20035;-62
2023/04/28 12:04:03;;;;;;;3.10;0.73;;;16.70;99.90;;;;;;5115281;28;20039;-62
2023/04/28 12:06:30;;;;;;;2.47;0.80;;;16.60;99.90;;;;;;5115370;28;20046;-62
2023/04/28 12:09:01;;;;;;;2.95;0.93;;;16.40;99.90;;;;;;5115167;28;20044;-62
2023/04/28 12:11:28;;;;;;;1.90;0.82;;;16.40;99.90;;;;;;5095984;28;20083;-63
2023/04/28 12:13:55;;;;;;;2.78;0.70;;;16.30;99.90;;;;;;5095754;28;20115;-63
2023/04/28 12:16:22;;;;;;;2.33;0.90;;;16.50;99.90;;;;;;5094223;28;20059;-63
2023/04/28 12:18:49;;;;;;;2.17;0.95;;;16.60;99.90;;;;;;5095746;28;20055;-62
2023/04/28 12:21:16;;;;;;;4.00;0.90;;;16.90;99.90;;;;;;5095607;28;20479;-61
2023/04/28 12:23:42;;;;;;;1.90;0.80;;;17.10;99.90;;;;;;5095545;28;20040;-62
2023/04/28 12:26:10;;;;;;;2.22;0.80;;;17.20;99.90;;;;;;5095652;28;20051;-62
2023/04/28 12:28:37;;;;;;;2.03;0.88;;;17.30;99.90;;;;;;5094990;28;20434;-62
2023/04/28 12:31:03;;;;;;;2.90;0.90;;;17.40;99.90;;;;;;5095115;28;20044;-62
2023/04/28 12:33:32;;;;;;;2.67;0.80;;;17.60;99.90;;;;;;5095195;28;20040;-61
2023/04/28 12:36:00;;;;;;;2.70;1.05;;;17.50;99.90;;;;;;5094846;28;20548;-62
2023/04/28 12:38:27;;;;;;;1.55;0.68;;;17.60;99.90;;;;;;5095160;28;20040;-62
2023/04/28 12:40:54;;;;;;;1.63;0.70;;;17.60;99.90;;;;;;5108932;28;20043;-61
2023/04/28 12:43:22;;;;;;;1.50;0.70;;;17.70;99.90;;;;;;5114758;28;20077;-63
2023/04/28 12:45:49;;;;;;;1.33;0.55;;;17.60;99.90;;;;;;5114464;28;20054;-62
2023/04/28 12:48:16;;;;;;;1.48;0.73;;;17.60;99.90;;;;;;5114438;28;20049;-62
2023/04/28 12:50:43;;;;;;;1.75;0.75;;;17.60;99.90;;;;;;5114332;28;20054;-62